Flight Track Log - Related Links

Times and Time Zones

All times are in EST time to prevent confusion due to time zone crossing. See the OPT438 flight status page for this flight to view local times or setup timezone preferences in your user account.

Time Position Orientation Groundspeed Altitude Reporting Facility
EST Latitude Longitude Course Direction KTS MPH feet Rate Location/Type
Wed 10:59:32 AM 41.5525 -81.5075 268° West 165 190 1,900  Level Cleveland Center
Wed 11:00:03 AM 41.5517 -81.5411 268° West 190 219 3,300 2,522 Climbing Cleveland Center
Wed 11:00:41 AM 41.5819 -81.5547 341° North 234 269 4,800 3,091 Climbing Cleveland Center
Wed 11:01:42 AM 41.6556 -81.5211 19° North 269 310 8,400 3,024 Climbing Cleveland Center
Wed 11:02:44 AM 41.7378 -81.4772 22° Northeast 302 348 11,000 2,371 Climbing Cleveland Center
Wed 11:03:46 AM 41.8381 -81.3931 32° Northeast 371 427 13,300 2,081 Climbing Cleveland Center
Wed 11:04:48 AM 41.8669 -81.2519 75° East 388 447 15,300 1,935 Climbing Cleveland Center
Wed 11:05:50 AM 41.8900 -81.1031 78° East 400 460 17,300 1,742 Climbing Cleveland Center
Wed 11:06:52 AM 41.9144 -80.9506 78° East 411 473 18,900 1,707 Climbing Cleveland Center
Wed 11:07:53 AM 41.9369 -80.7978 79° East 412 474 20,800 1,902 Climbing Cleveland Center
Wed 11:08:55 AM 41.9603 -80.6453 78° East 413 475 22,800 1,694 Climbing Cleveland Center
Wed 11:09:57 AM 41.9831 -80.4883 79° East 424 488 24,300 1,452 Climbing Cleveland Center
Wed 11:10:59 AM 42.0072 -80.3275 79° East 434 499 25,800 1,355 Climbing Cleveland Center
Wed 11:12:01 AM 42.0308 -80.1619 79° East 444 511 27,100 1,122 Climbing Cleveland Center
Wed 11:13:02 AM 42.0556 -79.9831 79° East 456 525 28,100 976 Climbing Cleveland Center
Wed 11:14:04 AM 42.0797 -79.8094 79° East 470 541 29,100 968 Climbing Cleveland Center
Wed 11:15:06 AM 42.0978 -79.6325 82° East 477 549 30,100 1,016 Climbing Cleveland Center
Wed 11:16:08 AM 42.1194 -79.4156 82° East 488 562 31,200 1,024 Climbing Cleveland Center
Wed 11:17:09 AM 42.1383 -79.2325 82° East 494 568 32,200 976 Climbing Cleveland Center
Wed 11:18:11 AM 42.1567 -79.0461 82° East 501 577 33,200 968 Climbing Cleveland Center
Wed 11:19:13 AM 42.1750 -78.8575 82° East 506 582 34,200 878 Climbing Cleveland Center
Wed 11:20:14 AM 42.1950 -78.6550 82° East 507 583 35,000 390 Climbing Cleveland Center
Wed 11:21:16 AM 42.2128 -78.4589 83° East 528 608 35,000  Level Cleveland Center
Wed 11:22:18 AM 42.2317 -78.2544 83° East 549 632 35,000  Level Cleveland Center
Wed 11:23:19 AM 42.2508 -78.0508 83° East 552 635 35,000  Level Cleveland Center
Wed 11:24:21 AM 42.2694 -77.8450 83° East 556 640 35,000  Level Cleveland Center
Wed 11:25:23 AM 42.2900 -77.6036 83° East 548 631 35,000  Level Cleveland Center
Wed 11:26:25 AM 42.3064 -77.4017 84° East 550 633 35,000  Level Cleveland Center
Wed 11:27:26 AM 42.3236 -77.2017 83° East 546 628 35,000  Level Cleveland Center
Wed 11:28:28 AM 42.3394 -76.9967 84° East 551 634 35,000  Level Cleveland Center
Wed 11:29:30 AM 42.3561 -76.7908 84° East 555 639 35,000  Level Cleveland Center
Wed 11:30:31 AM 42.3725 -76.5822 84° East 560 644 35,000  Level Cleveland Center
Wed 11:31:01 AM 42.3819 -76.4569 84° East 561 646 35,000  Level Boston Center
Wed 11:32:02 AM 42.3975 -76.2494 84° East 558 642 35,000 -344 Level Boston Center
Wed 11:33:03 AM 42.4133 -76.0156 85° East 560 644 34,300 -1,033 Descending Boston Center
Wed 11:34:04 AM 42.4278 -75.8147 84° East 544 626 32,900 -1,377 Descending Boston Center
Wed 11:35:05 AM 42.4414 -75.6158 85° East 535 616 31,500 -1,463 Descending Boston Center
Wed 11:36:07 AM 42.4547 -75.4269 84° East 515 593 29,900 -1,561 Descending Boston Center
Wed 11:37:08 AM 42.4661 -75.2472 85° East 490 564 28,300 -1,623 Descending Boston Center
Wed 11:38:09 AM 42.4711 -75.0708 88° East 474 545 26,600 -1,574 Descending Boston Center
Wed 11:39:10 AM 42.4750 -74.9000 88° East 460 529 25,100 -1,467 Descending Boston Center
Wed 11:40:24 AM 42.4789 -74.6986 88° East 450 518 23,300 -1,600 Descending Boston Center
Wed 11:41:25 AM 42.4817 -74.5036 89° East 440 506 21,500 -1,770 Descending Boston Center
Wed 11:42:26 AM 42.4853 -74.3422 88° East 434 499 19,700 -1,672 Descending Boston Center
Wed 11:43:27 AM 42.4861 -74.1822 90° East 425 489 18,100 -1,230 Descending Boston Center
Wed 11:44:28 AM 42.4878 -74.0250 89° East 420 483 17,200 -878 Descending Boston Center
Wed 11:45:30 AM 42.4894 -73.8617 89° East 408 470 16,300 -934 Descending Boston Center
Wed 11:46:30 AM 42.4914 -73.7122 89° East 405 466 15,300 -1,082 Descending Boston Center
Wed 11:46:31 AM 42.4908 -73.7128 216° Southwest 398 458 15,200 -367 Descending Boston Center
Wed 11:47:19 AM 42.4933 -73.5989 88° East 392 451 15,000 -197 Descending Boston Center
Wed 11:47:32 AM 42.4919 -73.5675 93° East 389 448 15,000  Level Boston Center
Wed 11:48:31 AM 42.4783 -73.4297 98° East 371 427 15,000 -98 Level Boston Center
Wed 11:48:33 AM 42.4725 -73.4214 134° Southeast 378 435 14,900 -1,224 Descending Boston Center
Wed 11:49:20 AM 42.4197 -73.3464 134° Southeast 364 419 14,000 -1,161 Descending Boston Center
Wed 11:49:35 AM 42.4019 -73.3233 136° Southeast 364 419 13,700 -1,377 Descending Boston Center
Wed 11:50:21 AM 42.3492 -73.2472 133° Southeast 359 413 12,600 -1,574 Descending Boston Center
Wed 11:50:36 AM 42.3339 -73.2217 129° Southeast 355 409 12,100 -1,309 Descending Boston Center
Wed 11:51:16 AM 42.3314 -73.1444 92° East 315 362 11,400 -1,180 Descending Boston Center
Wed 11:51:37 AM 42.3361 -73.1064 80° East 302 348 10,900 -2,000 Descending Boston Center
Wed 11:52:34 AM 42.3456 -73.0100 82° East 261 300 8,800 -2,262 Descending Boston Center
Wed 11:52:38 AM 42.3442 -73.0022 104° East 271 312 8,600 -2,093 Descending Boston Center
Wed 11:53:17 AM 42.3506 -72.9419 82° East 261 300 7,300 -2,129 Descending Boston Center
Wed 11:53:40 AM 42.3453 -72.9044 101° East 266 306 6,400 -2,328 Descending Boston Center
Wed 11:54:24 AM 42.3336 -72.8339 103° East 250 288 4,700 -2,164 Descending Boston Center
Wed 11:54:41 AM 42.3317 -72.8133 97° East 252 290 4,200 -764 Descending Boston Center
Wed 11:55:19 AM 42.3197 -72.7619 107° East 237 273 4,000 -197 Descending Boston Center
Wed 11:55:42 AM 42.3167 -72.7253 96° East 227 261 4,000 -71 Level Boston Center
Wed 11:56:43 AM 42.3056 -72.6583 103° East 189 217 3,900 -491 Descending Boston Center
Wed 11:57:32 AM 42.2933 -72.6128 110° East 169 194 3,100 -968 Descending Boston Center
Wed 11:57:45 AM 42.2919 -72.5975 97° East 173 199 2,900 -1,395 Descending Boston Center
Wed 11:58:15 AM 42.2822 -72.5711 116° Southeast 151 174 2,100 -1,279 Descending Boston Center
Wed 11:58:46 AM 42.2731 -72.5444 115° Southeast 160 184 1,600 -716 Descending Boston Center
Wed 11:59:22 AM 42.2581 -72.5189 128° Southeast 144 166 1,300 -393 Descending Boston Center
Wed 11:59:47 AM 42.2458 -72.5050 140° Southeast 134 154 1,200 -500 Descending Boston Center
Wed 12:00:22 PM 42.2258 -72.5075 185° South 129 148 800 -689 Descending Boston Center
Wed 12:00:48 PM 42.2133 -72.5136 200° South 124 143 500 -409 Descending Boston Center
Wed 12:01:50 PM 42.1906 -72.5358 216° Southwest 121 139 200 -290 Descending Boston Center

Login

Don't have an account? Register now (free) for customized features, flight alerts, and more!